createdAt,value
2022-09-28T00:01:24.131Z,0.20
2022-09-28T00:03:54.496Z,0.10
2022-09-28T00:06:24.944Z,0.13
2022-09-28T00:08:52.715Z,0.10
2022-09-28T00:11:22.311Z,0.10
2022-09-28T00:13:52.834Z,0.40
2022-09-28T00:16:26.047Z,0.30
2022-09-28T00:18:54.387Z,0.05
2022-09-28T00:21:34.231Z,0.20
2022-09-28T00:24:12.747Z,0.20
2022-09-28T00:26:43.808Z,0.20
2022-09-28T00:29:35.404Z,0.30
2022-09-28T00:32:07.884Z,0.32
2022-09-28T00:34:42.457Z,1.00
2022-09-28T00:37:10.492Z,0.10
2022-09-28T00:39:41.257Z,0.10
2022-09-28T00:42:25.902Z,0.30
2022-09-28T00:44:59.864Z,0.22
2022-09-28T00:47:41.721Z,0.20
2022-09-28T00:50:31.714Z,0.55
2022-09-28T00:53:09.782Z,2.00
2022-09-28T00:56:03.594Z,0.10
2022-09-28T00:58:35.649Z,0.10
2022-09-28T01:01:04.180Z,0.10
2022-09-28T01:03:33.267Z,1.80
2022-09-28T01:06:03.921Z,0.60
2022-09-28T01:08:34.229Z,0.10
2022-09-28T01:11:01.335Z,0.30
2022-09-28T01:13:31.498Z,0.20
2022-09-28T01:16:04.056Z,0.32
2022-09-28T01:19:14.059Z,0.55
2022-09-28T01:22:22.829Z,0.43
2022-09-28T01:25:17.655Z,0.20
2022-09-28T01:28:14.283Z,1.05
2022-09-28T01:31:03.917Z,0.28
2022-09-28T01:33:42.354Z,0.20
2022-09-28T01:36:17.802Z,0.55
2022-09-28T01:38:55.360Z,0.10
2022-09-28T01:41:26.945Z,0.20
2022-09-28T01:44:02.936Z,1.25
2022-09-28T01:46:48.178Z,0.10
2022-09-28T01:49:31.221Z,0.13
2022-09-28T01:52:04.905Z,2.20
2022-09-28T01:54:36.393Z,0.10
2022-09-28T01:57:34.195Z,0.30
2022-09-28T02:00:15.109Z,0.15
2022-09-28T02:05:24.803Z,0.28
2022-09-28T02:08:09.016Z,0.15
2022-09-28T02:10:46.252Z,0.65
2022-09-28T02:13:36.917Z,0.28
2022-09-28T02:16:31.382Z,0.17
2022-09-28T02:18:58.810Z,0.25
2022-09-28T02:21:46.569Z,0.63
2022-09-28T02:24:29.119Z,0.38
2022-09-28T02:27:00.628Z,0.60
2022-09-28T02:29:27.837Z,0.20
2022-09-28T02:31:54.741Z,1.30
2022-09-28T02:34:21.627Z,0.10
2022-09-28T02:36:48.669Z,0.30
2022-09-28T02:39:17.739Z,0.20
2022-09-28T02:41:50.397Z,0.55
2022-09-28T02:45:04.315Z,0.85
2022-09-28T02:48:16.012Z,0.17
2022-09-28T02:51:04.138Z,0.28
2022-09-28T02:54:18.651Z,0.10
2022-09-28T02:57:13.334Z,0.10
2022-09-28T03:00:02.328Z,0.20
2022-09-28T03:03:01.415Z,0.10
2022-09-28T03:05:47.368Z,0.30
2022-09-28T03:08:52.386Z,0.20
2022-09-28T03:11:31.974Z,0.57
2022-09-28T03:14:00.816Z,0.28
2022-09-28T03:16:28.596Z,0.30
2022-09-28T03:18:55.435Z,0.10
2022-09-28T03:21:22.210Z,0.20
2022-09-28T03:23:49.060Z,0.20
2022-09-28T03:26:16.813Z,0.10
2022-09-28T03:28:43.761Z,0.10
2022-09-28T03:31:10.672Z,0.22
2022-09-28T03:33:37.521Z,1.38
2022-09-28T03:36:04.661Z,1.30
2022-09-28T03:38:31.486Z,0.10
2022-09-28T03:41:00.631Z,0.20
2022-09-28T03:43:30.015Z,0.52
2022-09-28T03:46:00.528Z,0.50
2022-09-28T03:48:32.634Z,0.20
2022-09-28T03:51:03.834Z,5.47
2022-09-28T03:56:13.898Z,0.10
2022-09-28T03:58:40.797Z,0.13
2022-09-28T04:01:16.989Z,0.20
2022-09-28T04:03:45.384Z,0.88
2022-09-28T04:06:13.869Z,0.10
2022-09-28T04:08:40.796Z,0.10
2022-09-28T04:11:07.642Z,0.20
2022-09-28T04:13:34.432Z,0.10
2022-09-28T04:16:02.152Z,0.40
2022-09-28T04:18:29.410Z,0.10
2022-09-28T04:21:07.366Z,0.10
2022-09-28T04:23:36.413Z,0.40
2022-09-28T04:26:05.905Z,0.50
2022-09-28T04:28:51.697Z,0.20
2022-09-28T04:31:22.587Z,0.13
2022-09-28T04:36:17.819Z,0.15
2022-09-28T04:38:53.482Z,0.15
2022-09-28T04:41:22.487Z,0.30
2022-09-28T04:43:49.976Z,1.25
2022-09-28T04:46:17.118Z,0.35
2022-09-28T04:48:44.285Z,0.30
2022-09-28T04:51:11.251Z,0.20
2022-09-28T04:53:38.248Z,0.22
2022-09-28T04:56:09.753Z,0.40
2022-09-28T04:58:37.106Z,0.50
2022-09-28T05:01:09.537Z,0.30
2022-09-28T05:03:36.652Z,1.33
2022-09-28T05:06:03.881Z,2.08
2022-09-28T05:08:30.729Z,1.98
2022-09-28T05:11:06.747Z,1.05
2022-09-28T05:13:41.697Z,1.02
2022-09-28T05:16:10.282Z,0.30
2022-09-28T05:18:37.261Z,0.45
2022-09-28T05:21:09.433Z,0.20
2022-09-28T05:23:36.358Z,1.30
2022-09-28T05:26:03.195Z,0.20
2022-09-28T05:28:33.167Z,1.20
2022-09-28T05:31:02.057Z,1.20
2022-09-28T05:33:30.147Z,0.52
2022-09-28T05:36:01.642Z,0.60
2022-09-28T05:38:30.043Z,0.70
2022-09-28T05:40:57.773Z,1.25
2022-09-28T05:43:24.855Z,0.90
2022-09-28T05:45:55.515Z,0.17
2022-09-28T05:48:23.215Z,0.20
2022-09-28T05:50:53.164Z,0.57
2022-09-28T05:53:20.470Z,1.90
2022-09-28T05:55:47.723Z,0.20
2022-09-28T05:58:14.683Z,0.20
2022-09-28T06:00:41.474Z,6.60
2022-09-28T06:03:13.675Z,1.02
2022-09-28T06:05:41.996Z,0.30
2022-09-28T06:08:13.088Z,0.35
2022-09-28T06:10:40.352Z,0.30
2022-09-28T06:13:08.483Z,0.95
2022-09-28T06:15:36.641Z,0.55
2022-09-28T06:18:07.890Z,0.30
2022-09-28T06:20:41.292Z,0.30
2022-09-28T06:23:13.137Z,0.68
2022-09-28T06:25:40.567Z,1.33
2022-09-28T06:28:11.849Z,0.50
2022-09-28T06:30:40.409Z,0.30
2022-09-28T06:33:12.489Z,0.43
2022-09-28T06:35:40.629Z,0.20
2022-09-28T06:38:07.781Z,0.20
2022-09-28T06:40:35.706Z,0.20
2022-09-28T06:43:10.604Z,0.47
2022-09-28T06:45:38.869Z,0.20
2022-09-28T06:48:06.570Z,0.40
2022-09-28T06:50:40.493Z,0.50
2022-09-28T06:53:11.894Z,0.60
2022-09-28T06:55:46.040Z,1.40
2022-09-28T06:58:17.201Z,0.35
2022-09-28T07:00:44.543Z,3.08
2022-09-28T07:03:20.861Z,2.90
2022-09-28T07:05:51.426Z,2.05
2022-09-28T07:08:18.599Z,0.60
2022-09-28T07:10:49.494Z,0.73
2022-09-28T07:16:04.557Z,0.30
2022-09-28T07:18:31.531Z,1.48
2022-09-28T07:20:58.989Z,0.22
2022-09-28T07:23:29.594Z,0.50
2022-09-28T07:25:58.206Z,2.00
2022-09-28T07:28:25.401Z,2.58
2022-09-28T07:30:52.800Z,0.68
2022-09-28T07:33:19.719Z,1.38
2022-09-28T07:35:55.501Z,0.30
2022-09-28T07:38:22.625Z,0.30
2022-09-28T07:41:08.132Z,0.50
2022-09-28T07:43:35.332Z,1.83
2022-09-28T07:46:02.336Z,1.45
2022-09-28T07:48:37.759Z,0.60
2022-09-28T07:51:05.305Z,2.88
2022-09-28T07:53:32.165Z,0.25
2022-09-28T07:56:09.295Z,0.25
2022-09-28T07:58:38.428Z,0.20
2022-09-28T08:01:11.685Z,0.28
2022-09-28T08:03:39.448Z,0.20
2022-09-28T08:06:11.051Z,0.28
2022-09-28T08:08:40.102Z,0.75
2022-09-28T08:11:07.448Z,0.20
2022-09-28T08:13:34.231Z,0.10
2022-09-28T08:16:02.320Z,0.20
2022-09-28T08:18:32.986Z,0.30
2022-09-28T08:21:18.589Z,0.30
2022-09-28T08:23:45.379Z,0.65
2022-09-28T08:26:15.421Z,0.20
2022-09-28T08:28:44.922Z,0.20
2022-09-28T08:31:11.882Z,0.10
2022-09-28T08:33:38.767Z,0.13
2022-09-28T08:36:06.147Z,0.43
2022-09-28T08:38:33.367Z,0.20
2022-09-28T08:41:18.746Z,0.80
2022-09-28T08:44:24.809Z,0.20
2022-09-28T08:47:06.608Z,0.40
2022-09-28T08:49:46.562Z,0.13
2022-09-28T08:52:23.497Z,0.28
2022-09-28T08:55:15.259Z,0.50
2022-09-28T08:57:59.029Z,0.50
2022-09-28T09:00:41.157Z,0.20
2022-09-28T09:03:16.173Z,0.47
2022-09-28T09:06:06.874Z,0.30
2022-09-28T09:09:42.479Z,0.40
2022-09-28T09:12:15.211Z,0.10
2022-09-28T09:14:47.763Z,1.27
2022-09-28T09:17:29.151Z,0.45
2022-09-28T09:20:45.456Z,0.43
2022-09-28T09:23:39.127Z,0.25
2022-09-28T09:26:25.292Z,1.15
2022-09-28T09:29:45.096Z,0.80
2022-09-28T09:33:06.920Z,0.28
2022-09-28T09:35:58.868Z,0.60
2022-09-28T09:39:11.950Z,0.22
2022-09-28T09:42:14.498Z,0.43
2022-09-28T09:45:26.337Z,0.40
2022-09-28T09:48:17.479Z,0.20
2022-09-28T09:50:58.121Z,0.38
2022-09-28T09:53:42.145Z,0.75
2022-09-28T09:56:26.769Z,0.20
2022-09-28T09:59:04.491Z,0.73
2022-09-28T10:01:38.488Z,1.35
2022-09-28T10:04:22.146Z,0.55
2022-09-28T10:06:56.563Z,0.70
2022-09-28T10:09:37.776Z,0.77
2022-09-28T10:12:04.918Z,1.33
2022-09-28T10:14:31.762Z,0.28
2022-09-28T10:17:00.848Z,0.82
2022-09-28T10:19:37.120Z,1.42
2022-09-28T10:22:06.835Z,1.33
2022-09-28T10:24:45.149Z,0.70
2022-09-28T10:27:21.490Z,0.32
2022-09-28T10:29:55.290Z,0.68
2022-09-28T10:32:26.702Z,0.40
2022-09-28T10:35:12.545Z,0.32
2022-09-28T10:37:55.076Z,0.20
2022-09-28T10:40:46.428Z,0.40
2022-09-28T10:43:27.549Z,0.25
2022-09-28T10:46:10.847Z,0.52
2022-09-28T10:48:56.355Z,0.52
2022-09-28T10:51:41.655Z,0.32
2022-09-28T10:54:16.882Z,0.30
2022-09-28T10:56:45.793Z,0.47
2022-09-28T10:59:30.657Z,1.13
2022-09-28T11:02:25.980Z,0.38
2022-09-28T11:04:59.883Z,0.32
2022-09-28T11:07:33.390Z,0.28
2022-09-28T11:10:01.923Z,0.20
2022-09-28T11:12:42.563Z,0.57
2022-09-28T11:15:27.104Z,1.55
2022-09-28T11:17:53.968Z,0.60
2022-09-28T11:20:28.329Z,0.40
2022-09-28T11:23:26.705Z,0.63
2022-09-28T11:26:09.535Z,0.63
2022-09-28T11:28:39.034Z,1.20
2022-09-28T11:31:08.459Z,0.43
2022-09-28T11:33:46.099Z,0.45
2022-09-28T11:36:17.275Z,0.98
2022-09-28T11:39:20.194Z,3.33
2022-09-28T11:42:10.955Z,0.77
2022-09-28T11:44:48.794Z,2.30
2022-09-28T11:47:57.673Z,0.93
2022-09-28T11:50:45.233Z,0.80
2022-09-28T11:53:32.921Z,0.80
2022-09-28T11:56:27.678Z,1.35
2022-09-28T11:59:03.998Z,1.35
2022-09-28T12:01:56.553Z,1.17
2022-09-28T12:04:56.887Z,2.13
2022-09-28T12:07:53.405Z,2.17
2022-09-28T12:10:45.518Z,1.25
2022-09-28T12:13:20.440Z,1.30
2022-09-28T12:16:23.489Z,1.38
2022-09-28T12:19:19.352Z,1.00
2022-09-28T12:22:03.020Z,3.38
2022-09-28T12:24:45.684Z,3.63
2022-09-28T12:27:38.606Z,2.67
2022-09-28T12:30:16.772Z,1.58
2022-09-28T12:33:04.334Z,2.22
2022-09-28T12:36:08.717Z,1.20
2022-09-28T12:39:35.567Z,0.55
2022-09-28T12:42:06.699Z,0.80
2022-09-28T12:45:17.397Z,0.65
2022-09-28T12:48:20.069Z,0.50
2022-09-28T12:51:14.192Z,0.85
2022-09-28T12:54:22.311Z,0.85
2022-09-28T12:57:01.948Z,1.30
2022-09-28T12:59:42.026Z,0.40
2022-09-28T13:02:41.219Z,0.30
2022-09-28T13:05:34.545Z,1.58
2022-09-28T13:08:37.940Z,0.68
2022-09-28T13:11:10.155Z,0.95
2022-09-28T13:14:33.733Z,1.35
2022-09-28T13:17:15.986Z,0.80
2022-09-28T13:20:13.243Z,0.93
2022-09-28T13:22:56.001Z,1.15
2022-09-28T13:25:27.615Z,1.17
2022-09-28T13:28:05.766Z,0.57
2022-09-28T13:30:38.939Z,0.95
2022-09-28T13:33:10.607Z,1.15
2022-09-28T13:35:43.911Z,0.45
2022-09-28T13:38:30.253Z,0.47
2022-09-28T13:41:06.253Z,0.55
2022-09-28T13:44:10.192Z,0.50
2022-09-28T13:47:05.147Z,1.90
2022-09-28T13:49:56.975Z,1.05
2022-09-28T13:52:40.200Z,1.52
2022-09-28T13:56:02.739Z,1.30
2022-09-28T13:58:41.408Z,1.38
2022-09-28T14:01:29.337Z,1.10
2022-09-28T14:04:25.346Z,1.13
2022-09-28T14:07:16.779Z,1.17
2022-09-28T14:10:07.137Z,1.52
2022-09-28T14:12:33.855Z,1.30
2022-09-28T14:15:02.266Z,0.88
2022-09-28T14:17:29.039Z,1.50
2022-09-28T14:20:12.996Z,2.72
2022-09-28T14:23:18.725Z,1.70
2022-09-28T14:26:00.652Z,0.90
2022-09-28T14:29:24.681Z,0.90
2022-09-28T14:31:51.691Z,1.70
2022-09-28T14:34:35.421Z,0.80
2022-09-28T14:37:36.946Z,2.50
2022-09-28T14:40:36.515Z,1.50
2022-09-28T14:43:26.378Z,2.53
2022-09-28T14:46:10.993Z,1.60
2022-09-28T14:48:55.472Z,1.08
2022-09-28T14:51:30.037Z,1.40
2022-09-28T14:54:01.221Z,2.40
2022-09-28T14:56:54.312Z,2.00
2022-09-28T14:59:25.357Z,1.38
2022-09-28T15:02:04.293Z,3.00
2022-09-28T15:04:36.606Z,2.10
2022-09-28T15:07:03.506Z,1.88
2022-09-28T15:09:36.663Z,2.55
2022-09-28T15:12:13.093Z,4.90
2022-09-28T15:15:02.283Z,23.90
2022-09-28T15:17:39.798Z,12.25
2022-09-28T15:20:31.542Z,3.92
2022-09-28T15:23:00.023Z,3.50
2022-09-28T15:25:31.760Z,2.38
2022-09-28T15:28:19.470Z,2.40
2022-09-28T15:30:46.505Z,4.30
2022-09-28T15:33:52.575Z,32.40
2022-09-28T15:36:28.270Z,41.90
2022-09-28T15:39:02.563Z,14.60
2022-09-28T15:41:29.920Z,5.03
2022-09-28T15:44:32.276Z,3.63
2022-09-28T15:47:13.835Z,3.78
2022-09-28T15:50:05.952Z,3.85
2022-09-28T15:52:46.496Z,2.00
2022-09-28T15:55:37.293Z,2.53
2022-09-28T15:58:21.788Z,2.08
2022-09-28T16:00:51.683Z,1.48
2022-09-28T16:03:28.753Z,1.20
2022-09-28T16:05:58.266Z,1.02
2022-09-28T16:08:31.546Z,1.00
2022-09-28T16:11:45.929Z,1.48
2022-09-28T16:14:19.499Z,1.58
2022-09-28T16:16:52.460Z,1.88
2022-09-28T16:19:30.117Z,1.33
2022-09-28T16:22:02.464Z,2.53
2022-09-28T16:24:38.335Z,1.33
2022-09-28T16:27:06.555Z,1.88
2022-09-28T16:29:43.815Z,4.80
2022-09-28T16:32:25.924Z,1.58
2022-09-28T16:35:13.391Z,1.95
2022-09-28T16:37:42.697Z,2.28
2022-09-28T16:40:13.756Z,1.83
2022-09-28T16:42:48.690Z,2.83
2022-09-28T16:45:23.337Z,2.85
2022-09-28T16:47:53.496Z,4.63
2022-09-28T16:50:23.260Z,3.70
2022-09-28T16:53:32.565Z,4.22
2022-09-28T16:56:01.035Z,2.00
2022-09-28T16:58:29.054Z,1.35
2022-09-28T17:00:56.412Z,1.92
2022-09-28T17:03:24.253Z,1.30
2022-09-28T17:05:52.815Z,0.82
2022-09-28T17:08:23.833Z,2.45
2022-09-28T17:11:22.775Z,2.60
2022-09-28T17:13:49.027Z,1.17
2022-09-28T17:16:37.223Z,0.77
2022-09-28T17:19:28.572Z,2.50
2022-09-28T17:21:55.493Z,0.60
2022-09-28T17:24:22.387Z,1.98
2022-09-28T17:26:52.040Z,2.90
2022-09-28T17:29:19.704Z,1.92
2022-09-28T17:31:47.950Z,1.00
2022-09-28T17:34:16.196Z,3.30
2022-09-28T17:36:44.844Z,1.63
2022-09-28T17:39:14.464Z,0.93
2022-09-28T17:41:41.759Z,1.20
2022-09-28T17:44:09.016Z,1.88
2022-09-28T17:46:48.652Z,0.80
2022-09-28T17:49:18.710Z,7.00
2022-09-28T17:51:45.777Z,4.18
2022-09-28T17:54:20.776Z,5.18
2022-09-28T17:56:47.967Z,3.00
2022-09-28T17:59:18.318Z,2.30
2022-09-28T18:01:45.275Z,5.78
2022-09-28T18:04:27.920Z,2.63
2022-09-28T18:07:00.358Z,4.57
2022-09-28T18:09:27.227Z,5.03
2022-09-28T18:12:03.923Z,3.10
2022-09-28T18:14:30.857Z,2.65
2022-09-28T18:16:57.914Z,4.93
2022-09-28T18:19:28.637Z,2.50
2022-09-28T18:21:59.040Z,2.95
2022-09-28T18:24:25.911Z,1.42
2022-09-28T18:26:52.745Z,1.83
2022-09-28T18:29:19.693Z,1.40
2022-09-28T18:31:47.491Z,1.58
2022-09-28T18:34:15.534Z,2.67
2022-09-28T18:36:42.424Z,1.27
2022-09-28T18:39:09.302Z,1.60
2022-09-28T18:41:36.264Z,1.20
2022-09-28T18:44:03.132Z,1.35
2022-09-28T18:46:36.567Z,1.20
2022-09-28T18:49:04.859Z,1.13
2022-09-28T18:51:31.806Z,1.13
2022-09-28T18:54:00.110Z,1.75
2022-09-28T18:56:27.139Z,1.23
2022-09-28T18:58:54.000Z,1.02
2022-09-28T19:01:30.700Z,1.15
2022-09-28T19:04:08.506Z,0.60
2022-09-28T19:06:42.473Z,0.80
2022-09-28T19:09:09.531Z,0.50
2022-09-28T19:11:36.531Z,0.90
2022-09-28T19:14:03.626Z,2.85
2022-09-28T19:16:34.013Z,0.60
2022-09-28T19:19:03.039Z,0.70
2022-09-28T19:21:30.665Z,0.55
2022-09-28T19:24:01.618Z,0.60
2022-09-28T19:28:57.743Z,1.30
2022-09-28T19:31:25.670Z,0.40
2022-09-28T19:33:52.634Z,0.70
2022-09-28T19:36:24.582Z,0.90
2022-09-28T19:38:53.436Z,0.65
2022-09-28T19:41:44.802Z,0.52
2022-09-28T19:44:27.759Z,0.60
2022-09-28T19:47:06.666Z,1.27
2022-09-28T19:49:37.203Z,0.75
2022-09-28T19:52:15.874Z,0.40
2022-09-28T19:55:07.614Z,0.40
2022-09-28T19:57:34.860Z,0.40
2022-09-28T20:00:03.743Z,0.45
2022-09-28T20:02:30.949Z,0.60
2022-09-28T20:04:57.967Z,0.55
2022-09-28T20:07:24.905Z,0.90
2022-09-28T20:09:51.807Z,1.88
2022-09-28T20:12:19.124Z,0.57
2022-09-28T20:14:45.989Z,0.50
2022-09-28T20:17:13.063Z,0.50
2022-09-28T20:19:39.959Z,0.68
2022-09-28T20:22:06.900Z,0.45
2022-09-28T20:24:33.839Z,0.40
2022-09-28T20:27:01.319Z,0.50
2022-09-28T20:29:29.202Z,0.40
2022-09-28T20:31:56.639Z,0.30
2022-09-28T20:34:23.513Z,1.05
2022-09-28T20:36:50.302Z,0.30
2022-09-28T20:39:17.327Z,0.93
2022-09-28T20:41:46.029Z,0.30
2022-09-28T20:44:12.889Z,0.30
2022-09-28T20:46:39.849Z,0.45
2022-09-28T20:49:07.649Z,0.60
2022-09-28T20:51:34.651Z,1.08
2022-09-28T20:54:01.518Z,0.85
2022-09-28T20:56:40.014Z,0.40
2022-09-28T20:59:12.341Z,0.52
2022-09-28T21:01:40.258Z,0.43
2022-09-28T21:04:09.137Z,0.30
2022-09-28T21:06:40.363Z,0.77
2022-09-28T21:09:12.286Z,0.25
2022-09-28T21:11:40.147Z,2.28
2022-09-28T21:14:09.584Z,0.52
2022-09-28T21:16:36.476Z,0.65
2022-09-28T21:19:04.203Z,0.30
2022-09-28T21:21:31.225Z,0.30
2022-09-28T21:23:58.879Z,0.50
2022-09-28T21:26:31.185Z,0.52
2022-09-28T21:28:59.461Z,0.22
2022-09-28T21:31:31.441Z,0.50
2022-09-28T21:33:59.315Z,0.60
2022-09-28T21:36:26.463Z,0.75
2022-09-28T21:38:56.093Z,0.90
2022-09-28T21:41:24.717Z,0.60
2022-09-28T21:43:52.240Z,1.15
2022-09-28T21:46:19.282Z,0.50
2022-09-28T21:48:46.306Z,0.30
2022-09-28T21:51:15.542Z,0.40
2022-09-28T21:53:42.851Z,0.40
2022-09-28T21:56:13.015Z,0.35
2022-09-28T21:58:40.429Z,1.75
2022-09-28T22:01:25.440Z,0.65
2022-09-28T22:03:56.480Z,0.73
2022-09-28T22:06:28.118Z,0.70
2022-09-28T22:08:55.559Z,1.20
2022-09-28T22:11:25.550Z,0.45
2022-09-28T22:13:56.402Z,0.30
2022-09-28T22:18:52.690Z,1.27
2022-09-28T22:21:28.727Z,0.32
2022-09-28T22:24:01.106Z,0.63
2022-09-28T22:26:31.446Z,0.38
2022-09-28T22:29:02.684Z,0.30
2022-09-28T22:31:34.177Z,0.38
2022-09-28T22:34:01.925Z,0.22
2022-09-28T22:36:29.729Z,0.40
2022-09-28T22:38:57.950Z,0.40
2022-09-28T22:41:25.583Z,0.57
2022-09-28T22:43:54.631Z,0.88
2022-09-28T22:46:27.883Z,0.82
2022-09-28T22:48:58.383Z,0.22
2022-09-28T22:51:28.501Z,0.60
2022-09-28T22:53:56.660Z,1.40
2022-09-28T22:56:23.870Z,0.28
2022-09-28T22:58:50.832Z,0.30
2022-09-28T23:01:22.798Z,0.38
2022-09-28T23:03:52.042Z,0.28
2022-09-28T23:06:21.905Z,0.40
2022-09-28T23:08:51.691Z,0.32
2022-09-28T23:11:19.593Z,0.32
2022-09-28T23:14:14.749Z,2.30
2022-09-28T23:16:41.696Z,1.65
2022-09-28T23:19:08.577Z,0.80
2022-09-28T23:21:37.061Z,0.60
2022-09-28T23:24:04.194Z,1.00
2022-09-28T23:26:33.148Z,0.65
2022-09-28T23:29:00.738Z,0.80
2022-09-28T23:31:31.406Z,1.05
2022-09-28T23:34:01.406Z,0.68
2022-09-28T23:36:28.428Z,0.45
2022-09-28T23:38:55.277Z,0.50
2022-09-28T23:41:22.161Z,0.55
2022-09-28T23:43:49.013Z,0.30
2022-09-28T23:46:20.483Z,0.40
2022-09-28T23:48:49.176Z,0.40
2022-09-28T23:51:16.224Z,0.55
2022-09-28T23:53:43.582Z,0.68
2022-09-28T23:56:10.661Z,0.93
2022-09-28T23:58:37.526Z,0.30
